Norfolk, Virginia
Traffic Map
Current Weather Conditions
Norfolk, Virginia
Clear
Clear
29°
Feels Like: 33°
Wind Chill: 29° Ceiling: Unl
Heat Index: 33° Visibility: 10mi
Dew Point: 23° Wind: 12mph
Humidity: 67% Direction: 50° (NE)
Pressure: 30.12in Gusts: 0mph
Raw Report DataKORF 271951Z 05010KT 10SM CLR 29/23 A3012 RMK AO2 SLP198 T02940228
Traffic Incident Summary
Active as of:
Severity:
Category:
InformationThere was an issue retrieving the traffic information for this location. Please try a different location or try again shortly.
Advertisements
Track Severe Weather on mobile